createdAt,value
2023-05-12T00:01:03.708Z,2.17
2023-05-12T00:04:06.953Z,2.20
2023-05-12T00:07:09.912Z,2.38
2023-05-12T00:10:12.561Z,2.10
2023-05-12T00:13:15.622Z,1.88
2023-05-12T00:16:19.014Z,2.05
2023-05-12T00:19:22.129Z,2.20
2023-05-12T00:22:24.778Z,1.98
2023-05-12T00:25:27.301Z,2.23
2023-05-12T00:28:30.043Z,1.90
2023-05-12T00:31:32.649Z,2.10
2023-05-12T00:34:35.299Z,2.30
2023-05-12T00:37:38.065Z,2.22
2023-05-12T00:40:41.436Z,2.20
2023-05-12T00:43:43.957Z,2.10
2023-05-12T00:46:46.569Z,2.10
2023-05-12T00:49:49.250Z,2.15
2023-05-12T00:52:52.715Z,2.22
2023-05-12T00:55:55.751Z,2.20
2023-05-12T00:58:58.665Z,2.53
2023-05-12T01:02:01.455Z,2.65
2023-05-12T01:05:04.611Z,2.42
2023-05-12T01:08:09.473Z,2.38
2023-05-12T01:11:12.286Z,2.60
2023-05-12T01:14:15.811Z,2.50
2023-05-12T01:17:22.432Z,2.63
2023-05-12T01:20:27.044Z,2.70
2023-05-12T01:23:36.391Z,2.70
2023-05-12T01:26:39.446Z,2.20
2023-05-12T01:29:43.878Z,2.67
2023-05-12T01:32:46.731Z,2.22
2023-05-12T01:35:49.250Z,2.33
2023-05-12T01:38:52.270Z,2.40
2023-05-12T01:41:54.807Z,2.27
2023-05-12T01:44:57.613Z,2.55
2023-05-12T01:48:01.280Z,2.17
2023-05-12T01:51:08.124Z,2.40
2023-05-12T01:54:10.835Z,2.30
2023-05-12T01:57:14.295Z,2.40
2023-05-12T02:00:17.142Z,2.22
2023-05-12T02:03:22.339Z,2.22
2023-05-12T02:06:26.097Z,2.28
2023-05-12T02:09:28.923Z,2.30
2023-05-12T02:12:35.718Z,2.40
2023-05-12T02:15:38.205Z,2.53
2023-05-12T02:18:41.122Z,2.40
2023-05-12T02:21:46.163Z,2.10
2023-05-12T02:24:48.672Z,2.83
2023-05-12T02:27:52.344Z,2.40
2023-05-12T02:30:55.119Z,2.70
2023-05-12T02:33:58.900Z,2.72
2023-05-12T02:37:01.834Z,2.40
2023-05-12T02:40:04.864Z,2.40
2023-05-12T02:43:07.453Z,2.30
2023-05-12T02:46:10.154Z,2.28
2023-05-12T02:49:12.963Z,2.10
2023-05-12T02:52:15.457Z,2.38
2023-05-12T02:55:18.113Z,2.70
2023-05-12T02:58:20.647Z,2.20
2023-05-12T03:01:23.249Z,2.30
2023-05-12T03:04:26.165Z,2.30
2023-05-12T03:07:28.665Z,2.40
2023-05-12T03:10:31.577Z,2.28
2023-05-12T03:13:34.039Z,2.20
2023-05-12T03:16:37.061Z,2.45
2023-05-12T03:19:39.801Z,2.10
2023-05-12T03:22:42.358Z,2.45
2023-05-12T03:25:45.154Z,2.20
2023-05-12T03:28:49.294Z,2.30
2023-05-12T03:31:51.866Z,2.55
2023-05-12T03:34:54.977Z,2.33
2023-05-12T03:37:57.716Z,2.25
2023-05-12T03:41:06.771Z,2.50
2023-05-12T03:44:11.487Z,2.17
2023-05-12T03:47:14.173Z,2.30
2023-05-12T03:50:16.887Z,2.30
2023-05-12T03:53:20.100Z,2.10
2023-05-12T03:56:22.985Z,2.10
2023-05-12T03:59:25.859Z,2.30
2023-05-12T04:02:28.524Z,2.10
2023-05-12T04:05:31.136Z,2.20
2023-05-12T04:08:34.847Z,2.10
2023-05-12T04:11:38.059Z,2.40
2023-05-12T04:14:43.193Z,2.10
2023-05-12T04:17:46.064Z,2.08
2023-05-12T04:20:48.741Z,2.15
2023-05-12T04:23:55.076Z,2.55
2023-05-12T04:27:01.443Z,2.40
2023-05-12T04:30:04.531Z,2.23
2023-05-12T04:33:11.529Z,2.30
2023-05-12T04:36:16.087Z,2.22
2023-05-12T04:39:18.771Z,2.45
2023-05-12T04:42:21.476Z,2.60
2023-05-12T04:45:24.107Z,2.07
2023-05-12T04:48:29.261Z,2.15
2023-05-12T04:51:32.791Z,2.63
2023-05-12T04:54:35.308Z,2.10
2023-05-12T04:57:37.969Z,2.30
2023-05-12T05:00:40.718Z,2.13
2023-05-12T05:03:43.599Z,2.17
2023-05-12T05:06:46.845Z,2.05
2023-05-12T05:09:50.383Z,2.40
2023-05-12T05:12:52.928Z,2.13
2023-05-12T05:15:56.640Z,2.23
2023-05-12T05:19:06.141Z,2.30
2023-05-12T05:22:10.254Z,2.25
2023-05-12T05:25:13.671Z,2.10
2023-05-12T05:28:17.281Z,2.33
2023-05-12T05:31:20.221Z,2.30
2023-05-12T05:34:23.228Z,2.40
2023-05-12T05:37:26.468Z,2.30
2023-05-12T05:40:44.951Z,2.10
2023-05-12T05:43:52.097Z,2.50
2023-05-12T05:46:55.302Z,2.37
2023-05-12T05:50:00.494Z,2.17
2023-05-12T05:53:03.886Z,2.20
2023-05-12T05:56:06.982Z,2.28
2023-05-12T05:59:09.970Z,2.10
2023-05-12T06:02:14.277Z,2.37
2023-05-12T06:05:20.148Z,2.33
2023-05-12T06:08:24.498Z,2.50
2023-05-12T06:11:27.238Z,2.60
2023-05-12T06:14:32.378Z,2.70
2023-05-12T06:17:35.465Z,2.53
2023-05-12T06:20:38.139Z,2.40
2023-05-12T06:23:42.205Z,2.47
2023-05-12T06:26:45.683Z,2.60
2023-05-12T06:29:51.391Z,2.20
2023-05-12T06:32:54.099Z,2.30
2023-05-12T06:35:57.720Z,2.30
2023-05-12T06:39:03.943Z,2.38
2023-05-12T06:42:07.386Z,2.40
2023-05-12T06:45:17.247Z,2.45
2023-05-12T06:48:19.956Z,2.20
2023-05-12T06:51:25.284Z,2.40
2023-05-12T06:54:29.032Z,2.30
2023-05-12T06:57:34.063Z,2.05
2023-05-12T07:00:38.242Z,2.42
2023-05-12T07:03:41.042Z,2.77
2023-05-12T07:06:44.022Z,2.50
2023-05-12T07:09:46.697Z,2.65
2023-05-12T07:12:49.329Z,2.65
2023-05-12T07:15:52.067Z,2.55
2023-05-12T07:18:54.908Z,2.20
2023-05-12T07:21:58.832Z,2.60
2023-05-12T07:25:01.921Z,2.22
2023-05-12T07:28:05.104Z,2.25
2023-05-12T07:31:08.948Z,2.67
2023-05-12T07:34:11.584Z,2.27
2023-05-12T07:37:14.564Z,2.58
2023-05-12T07:40:17.544Z,2.60
2023-05-12T07:43:20.087Z,2.40
2023-05-12T07:46:22.778Z,2.20
2023-05-12T07:49:25.638Z,2.40
2023-05-12T07:52:29.735Z,2.38
2023-05-12T07:55:34.132Z,2.30
2023-05-12T07:58:38.289Z,2.33
2023-05-12T08:01:42.307Z,2.80
2023-05-12T08:04:45.082Z,2.27
2023-05-12T08:07:48.452Z,2.42
2023-05-12T08:10:51.435Z,2.65
2023-05-12T08:13:54.224Z,2.67
2023-05-12T08:16:58.102Z,2.60
2023-05-12T08:20:06.914Z,2.97
2023-05-12T08:23:12.143Z,3.08
2023-05-12T08:26:15.972Z,2.83
2023-05-12T08:29:18.580Z,3.15
2023-05-12T08:32:22.063Z,3.15
2023-05-12T08:35:26.657Z,3.00
2023-05-12T08:38:29.876Z,2.85
2023-05-12T08:41:58.771Z,2.60
2023-05-12T08:45:01.366Z,2.55
2023-05-12T08:48:12.255Z,2.20
2023-05-12T08:51:19.517Z,2.70
2023-05-12T08:54:22.892Z,2.70
2023-05-12T08:57:29.336Z,2.90
2023-05-12T09:00:36.826Z,2.80
2023-05-12T09:03:39.865Z,3.20
2023-05-12T09:06:43.851Z,2.70
2023-05-12T09:09:51.211Z,3.40
2023-05-12T09:13:00.161Z,2.95
2023-05-12T09:16:05.796Z,2.90
2023-05-12T09:19:10.680Z,2.90
2023-05-12T09:22:17.159Z,3.03
2023-05-12T09:25:23.057Z,2.95
2023-05-12T09:28:38.259Z,2.80
2023-05-12T09:32:07.008Z,2.63
2023-05-12T09:35:11.626Z,3.38
2023-05-12T09:41:49.226Z,2.75
2023-05-12T09:44:52.396Z,2.80
2023-05-12T09:48:03.068Z,2.90
2023-05-12T09:51:11.135Z,2.80
2023-05-12T09:54:23.813Z,2.50
2023-05-12T09:57:37.624Z,2.47
2023-05-12T10:01:02.389Z,2.95
2023-05-12T10:04:07.882Z,2.90
2023-05-12T10:07:14.529Z,2.90
2023-05-12T10:10:21.907Z,2.97
2023-05-12T10:13:25.917Z,2.53
2023-05-12T10:16:29.269Z,2.80
2023-05-12T10:19:32.866Z,2.50
2023-05-12T10:22:40.925Z,2.70
2023-05-12T10:25:46.094Z,2.50
2023-05-12T10:28:50.081Z,3.10
2023-05-12T10:31:52.939Z,2.50
2023-05-12T10:34:56.484Z,2.67
2023-05-12T10:38:09.211Z,2.70
2023-05-12T10:41:13.082Z,2.60
2023-05-12T10:44:27.108Z,2.40
2023-05-12T10:47:38.947Z,3.08
2023-05-12T10:50:53.696Z,2.80
2023-05-12T10:53:58.712Z,2.80
2023-05-12T10:57:02.200Z,2.67
2023-05-12T11:00:14.391Z,2.80
2023-05-12T11:03:25.728Z,2.67
2023-05-12T11:06:31.266Z,2.75
2023-05-12T11:09:43.256Z,2.80
2023-05-12T11:12:53.705Z,2.50
2023-05-12T11:15:59.556Z,2.78
2023-05-12T11:19:05.826Z,2.78
2023-05-12T11:22:10.649Z,2.78
2023-05-12T11:25:14.138Z,2.67
2023-05-12T11:28:17.929Z,2.30
2023-05-12T11:31:22.511Z,2.55
2023-05-12T11:34:27.364Z,2.63
2023-05-12T11:37:30.689Z,2.30
2023-05-12T11:40:34.038Z,2.78
2023-05-12T11:43:40.603Z,2.83
2023-05-12T11:47:24.166Z,2.47
2023-05-12T11:50:27.032Z,2.60
2023-05-12T11:53:29.621Z,2.30
2023-05-12T11:56:32.268Z,2.55
2023-05-12T11:59:35.605Z,2.30
2023-05-12T12:02:39.890Z,2.30
2023-05-12T12:05:45.557Z,2.08
2023-05-12T12:08:51.424Z,2.60
2023-05-12T12:11:54.543Z,2.47
2023-05-12T12:15:00.347Z,2.40
2023-05-12T12:18:03.534Z,2.60
2023-05-12T12:21:06.323Z,2.40
2023-05-12T12:24:10.106Z,2.30
2023-05-12T12:27:13.966Z,2.45
2023-05-12T12:30:20.226Z,2.23
2023-05-12T12:33:22.776Z,2.20
2023-05-12T12:36:25.454Z,2.25
2023-05-12T12:39:28.640Z,2.40
2023-05-12T12:42:31.335Z,2.50
2023-05-12T12:45:34.348Z,2.57
2023-05-12T12:48:37.413Z,2.28
2023-05-12T12:51:46.088Z,2.42
2023-05-12T12:54:50.799Z,2.22
2023-05-12T12:57:53.398Z,2.20
2023-05-12T13:01:03.857Z,2.50
2023-05-12T13:04:13.095Z,2.00
2023-05-12T13:07:16.480Z,2.53
2023-05-12T13:10:20.159Z,2.55
2023-05-12T13:13:24.584Z,2.30
2023-05-12T13:16:28.901Z,2.33
2023-05-12T13:19:31.638Z,2.33
2023-05-12T13:22:34.152Z,2.20
2023-05-12T13:25:37.352Z,2.40
2023-05-12T13:28:39.892Z,2.20
2023-05-12T13:31:45.816Z,2.07
2023-05-12T13:34:48.435Z,2.03
2023-05-12T13:37:51.111Z,2.60
2023-05-12T13:40:53.728Z,2.40
2023-05-12T13:43:56.326Z,2.67
2023-05-12T13:46:59.662Z,2.23
2023-05-12T13:50:02.196Z,2.20
2023-05-12T13:53:05.038Z,2.60
2023-05-12T13:56:08.024Z,2.47
2023-05-12T13:59:10.651Z,2.60
2023-05-12T14:02:13.949Z,2.20
2023-05-12T14:05:16.763Z,2.10
2023-05-12T14:08:19.466Z,2.25
2023-05-12T14:11:23.086Z,2.13
2023-05-12T14:14:25.641Z,2.10
2023-05-12T14:17:28.275Z,2.27
2023-05-12T14:20:31.090Z,2.30
2023-05-12T14:23:33.604Z,2.20
2023-05-12T14:26:37.192Z,2.20
2023-05-12T14:29:40.454Z,2.10
2023-05-12T14:32:43.019Z,2.60
2023-05-12T14:35:55.615Z,2.10
2023-05-12T14:39:02.106Z,2.33
2023-05-12T14:42:04.798Z,2.25
2023-05-12T14:45:09.420Z,2.00
2023-05-12T14:48:12.215Z,2.47
2023-05-12T14:51:14.826Z,2.25
2023-05-12T14:54:25.205Z,2.10
2023-05-12T14:57:28.685Z,2.30
2023-05-12T15:00:31.602Z,1.90
2023-05-12T15:03:34.092Z,2.10
2023-05-12T15:06:38.162Z,2.13
2023-05-12T15:09:40.756Z,2.33
2023-05-12T15:12:43.434Z,2.33
2023-05-12T15:15:46.876Z,2.50
2023-05-12T15:18:50.244Z,2.43
2023-05-12T15:21:52.791Z,2.20
2023-05-12T15:24:55.733Z,2.03
2023-05-12T15:27:58.309Z,3.03
2023-05-12T15:31:00.957Z,2.30
2023-05-12T15:34:03.616Z,2.53
2023-05-12T15:37:06.724Z,2.35
2023-05-12T15:40:13.124Z,2.10
2023-05-12T15:43:15.909Z,2.38
2023-05-12T15:46:18.530Z,2.47
2023-05-12T15:49:21.301Z,2.47
2023-05-12T15:52:24.935Z,2.40
2023-05-12T15:55:27.527Z,2.50
2023-05-12T15:58:30.119Z,3.17
2023-05-12T16:01:32.670Z,3.50
2023-05-12T16:04:35.584Z,3.27
2023-05-12T16:07:38.800Z,2.97
2023-05-12T16:10:41.582Z,3.00
2023-05-12T16:13:44.172Z,3.60
2023-05-12T16:16:49.148Z,3.83
2023-05-12T16:19:53.725Z,3.90
2023-05-12T16:22:56.306Z,4.75
2023-05-12T16:25:59.426Z,4.35
2023-05-12T16:29:02.014Z,4.65
2023-05-12T16:32:04.864Z,4.25
2023-05-12T16:35:08.090Z,4.20
2023-05-12T16:38:11.343Z,4.30
2023-05-12T16:41:13.855Z,4.55
2023-05-12T16:44:16.379Z,4.20
2023-05-12T16:47:18.870Z,4.78
2023-05-12T16:50:21.937Z,4.10
2023-05-12T16:53:24.501Z,3.67
2023-05-12T16:56:27.581Z,4.00
2023-05-12T16:59:32.502Z,3.83
2023-05-12T17:02:35.524Z,3.92
2023-05-12T17:05:38.232Z,3.50
2023-05-12T17:08:40.981Z,3.95
2023-05-12T17:11:43.588Z,3.78
2023-05-12T17:14:52.928Z,3.92
2023-05-12T17:18:02.602Z,3.58
2023-05-12T17:21:07.208Z,3.70
2023-05-12T17:24:09.827Z,3.92
2023-05-12T17:27:12.326Z,3.30
2023-05-12T17:30:15.992Z,3.55
2023-05-12T17:33:18.521Z,3.55
2023-05-12T17:36:21.062Z,3.23
2023-05-12T17:39:23.579Z,3.65
2023-05-12T17:42:31.480Z,3.53
2023-05-12T17:45:34.011Z,3.10
2023-05-12T17:48:38.585Z,3.30
2023-05-12T17:51:42.100Z,3.53
2023-05-12T17:54:44.673Z,3.13
2023-05-12T17:57:49.389Z,3.58
2023-05-12T18:00:52.163Z,3.10
2023-05-12T18:03:54.834Z,3.60
2023-05-12T18:06:57.506Z,3.20
2023-05-12T18:10:00.265Z,3.47
2023-05-12T18:13:03.135Z,3.10
2023-05-12T18:16:10.795Z,3.13
2023-05-12T18:19:21.172Z,3.08
2023-05-12T18:22:24.335Z,3.30
2023-05-12T18:25:26.853Z,3.08
2023-05-12T18:28:29.472Z,3.40
2023-05-12T18:31:31.977Z,2.90
2023-05-12T18:34:34.993Z,3.15
2023-05-12T18:37:37.924Z,2.87
2023-05-12T18:40:40.997Z,3.22
2023-05-12T18:43:44.287Z,3.78
2023-05-12T18:46:47.717Z,2.95
2023-05-12T18:49:50.486Z,3.40
2023-05-12T18:52:53.276Z,2.93
2023-05-12T18:55:56.545Z,3.17
2023-05-12T18:58:59.141Z,3.22
2023-05-12T19:02:01.876Z,3.13
2023-05-12T19:05:05.267Z,2.88
2023-05-12T19:08:08.151Z,3.10
2023-05-12T19:11:11.052Z,3.20
2023-05-12T19:14:16.063Z,2.95
2023-05-12T19:17:19.356Z,3.17
2023-05-12T19:20:23.055Z,2.92
2023-05-12T19:23:26.009Z,2.90
2023-05-12T19:26:28.788Z,2.88
2023-05-12T19:29:31.777Z,3.17
2023-05-12T19:32:34.437Z,3.22
2023-05-12T19:35:37.661Z,2.78
2023-05-12T19:38:43.611Z,2.90
2023-05-12T19:41:46.345Z,2.67
2023-05-12T19:44:49.039Z,2.90
2023-05-12T19:47:51.999Z,2.60
2023-05-12T19:50:54.962Z,3.20
2023-05-12T19:53:57.985Z,2.73
2023-05-12T19:57:00.613Z,2.70
2023-05-12T20:00:03.391Z,2.80
2023-05-12T20:03:15.083Z,2.75
2023-05-12T20:06:17.968Z,2.60
2023-05-12T20:09:26.008Z,2.87
2023-05-12T20:12:28.575Z,2.72
2023-05-12T20:15:31.889Z,2.90
2023-05-12T20:18:34.428Z,2.83
2023-05-12T20:21:36.979Z,2.75
2023-05-12T20:24:39.514Z,2.97
2023-05-12T20:27:42.841Z,2.70
2023-05-12T20:30:46.201Z,2.53
2023-05-12T20:33:48.751Z,2.50
2023-05-12T20:36:51.394Z,2.65
2023-05-12T20:39:56.971Z,2.90
2023-05-12T20:42:59.532Z,2.47
2023-05-12T20:46:05.532Z,2.70
2023-05-12T20:49:08.210Z,2.90
2023-05-12T20:52:10.769Z,2.60
2023-05-12T20:55:13.302Z,2.50
2023-05-12T20:58:16.072Z,2.75
2023-05-12T21:01:19.151Z,2.67
2023-05-12T21:04:22.028Z,2.90
2023-05-12T21:07:24.847Z,2.60
2023-05-12T21:10:27.475Z,2.70
2023-05-12T21:13:30.009Z,2.50
2023-05-12T21:16:32.566Z,2.70
2023-05-12T21:19:36.681Z,2.38
2023-05-12T21:22:40.852Z,2.50
2023-05-12T21:25:43.458Z,2.73
2023-05-12T21:28:45.960Z,2.20
2023-05-12T21:31:48.741Z,2.60
2023-05-12T21:34:51.313Z,2.67
2023-05-12T21:37:53.849Z,2.75
2023-05-12T21:40:56.490Z,2.60
2023-05-12T21:43:58.977Z,2.85
2023-05-12T21:47:03.541Z,2.47
2023-05-12T21:50:06.937Z,2.75
2023-05-12T21:53:09.501Z,2.53
2023-05-12T21:56:12.056Z,2.20
2023-05-12T21:59:14.569Z,2.50
2023-05-12T22:02:17.056Z,2.47
2023-05-12T22:05:19.797Z,2.20
2023-05-12T22:08:22.523Z,2.33
2023-05-12T22:11:25.127Z,2.40
2023-05-12T22:14:28.006Z,2.35
2023-05-12T22:17:30.588Z,2.47
2023-05-12T22:20:33.141Z,2.50
2023-05-12T22:23:35.947Z,2.47
2023-05-12T22:26:38.537Z,2.10
2023-05-12T22:29:41.037Z,2.30
2023-05-12T22:32:44.653Z,2.70
2023-05-12T22:35:47.254Z,2.30
2023-05-12T22:38:49.744Z,2.42
2023-05-12T22:41:52.280Z,2.50
2023-05-12T22:44:54.734Z,2.20
2023-05-12T22:47:57.390Z,2.60
2023-05-12T22:51:00.264Z,2.35
2023-05-12T22:54:02.740Z,2.33
2023-05-12T22:57:05.549Z,2.60
2023-05-12T23:00:08.513Z,2.40
2023-05-12T23:03:11.810Z,2.55
2023-05-12T23:06:14.544Z,2.10
2023-05-12T23:09:17.055Z,2.30
2023-05-12T23:12:19.668Z,2.10
2023-05-12T23:15:22.350Z,2.13
2023-05-12T23:18:24.945Z,2.30
2023-05-12T23:21:27.564Z,2.45
2023-05-12T23:24:30.387Z,2.20
2023-05-12T23:27:32.976Z,2.10
2023-05-12T23:30:35.469Z,2.03
2023-05-12T23:33:38.033Z,2.75
2023-05-12T23:36:40.933Z,2.35
2023-05-12T23:39:43.373Z,2.13
2023-05-12T23:42:45.875Z,2.27
2023-05-12T23:45:48.479Z,1.95
2023-05-12T23:48:52.167Z,2.20
2023-05-12T23:51:54.676Z,2.28
2023-05-12T23:54:57.267Z,2.22
2023-05-12T23:58:00.126Z,2.20
